Time;durP1;ratioP1;P1;durP2;ratioP2;P2;SDS_P1;SDS_P2;PMS_P1;PMS_P2;Temp;Humidity;BMP_temperature;BMP_pressure;BME280_temperature;BME280_humidity;BME280_pressure;Samples;Min_cycle;Max_cycle;Signal;HPM_P1;HPM_P2
2023/04/11 00:01:13;;;;;;;4.80;4.40;;;12.70;56.50;12.80;96253.00;;;;5017812;28;20682;-79
2023/04/11 00:03:40;;;;;;;5.53;4.97;;;12.80;56.60;12.80;96243.00;;;;5017817;28;20224;-80
2023/04/11 00:06:08;;;;;;;4.70;4.30;;;12.70;56.60;12.80;96240.00;;;;5005144;28;20313;-79
2023/04/11 00:08:35;;;;;;;5.00;4.57;;;12.70;56.70;12.80;96233.00;;;;4993819;28;20289;-79
2023/04/11 00:11:02;;;;;;;5.00;4.53;;;12.70;56.90;12.80;96228.00;;;;5025207;28;20565;-79
2023/04/11 00:13:31;;;;;;;4.77;4.00;;;12.70;56.90;12.80;96219.00;;;;5030571;28;20221;-79
2023/04/11 00:16:00;;;;;;;4.20;3.80;;;12.70;57.00;12.80;96221.00;;;;5013947;28;20205;-79
2023/04/11 00:18:28;;;;;;;5.10;4.60;;;12.70;57.00;12.70;96221.00;;;;5014159;28;20289;-79
2023/04/11 00:20:55;;;;;;;5.10;4.60;;;12.70;57.00;12.70;96216.00;;;;5032217;28;20197;-79
2023/04/11 00:23:22;;;;;;;5.33;4.83;;;12.60;56.90;12.70;96214.00;;;;5033751;28;20232;-79
2023/04/11 00:25:49;;;;;;;5.20;4.70;;;12.60;57.00;12.70;96205.00;;;;5024286;28;20806;-79
2023/04/11 00:28:16;;;;;;;4.60;4.20;;;12.60;57.10;12.70;96205.00;;;;5012957;28;20194;-79
2023/04/11 00:30:45;;;;;;;4.83;4.43;;;12.60;57.10;12.60;96197.00;;;;4996131;28;20348;-80
2023/04/11 00:33:12;;;;;;;4.63;4.23;;;12.60;57.20;12.60;96195.00;;;;5029259;28;20309;-79
2023/04/11 00:35:41;;;;;;;5.43;4.93;;;12.60;57.90;12.70;96187.00;;;;5002712;28;20194;-80
2023/04/11 00:38:08;;;;;;;4.67;4.27;;;12.60;57.30;12.60;96177.00;;;;4975578;28;20191;-80
2023/04/11 00:40:35;;;;;;;4.70;4.30;;;12.50;57.30;12.60;96172.00;;;;5018902;28;20309;-79
2023/04/11 00:43:03;;;;;;;4.90;4.40;;;12.50;57.40;12.60;96165.00;;;;4994289;28;20269;-80
2023/04/11 00:45:30;;;;;;;5.20;4.70;;;12.50;57.40;12.60;96168.00;;;;4994117;28;20687;-79
2023/04/11 00:47:59;;;;;;;4.20;3.80;;;12.50;57.50;12.60;96165.00;;;;5019954;28;20685;-79
2023/04/11 00:50:26;;;;;;;5.47;4.77;;;12.50;57.60;12.60;96157.00;;;;5018939;28;20288;-79
2023/04/11 00:52:56;;;;;;;5.30;4.80;;;12.50;57.70;12.60;96145.00;;;;5015116;28;20726;-79
2023/04/11 00:55:24;;;;;;;4.90;4.40;;;12.50;57.80;12.60;96144.00;;;;5006831;28;20782;-79
2023/04/11 00:57:54;;;;;;;4.70;4.03;;;12.40;57.80;12.60;96142.00;;;;5021700;28;20202;-79
2023/04/11 01:00:23;;;;;;;4.80;4.40;;;12.50;57.90;12.60;96144.00;;;;5002319;28;20198;-79
2023/04/11 01:02:51;;;;;;;4.60;4.20;;;12.50;58.00;12.60;96150.00;;;;5023933;28;20309;-79
2023/04/11 01:05:20;;;;;;;4.97;4.47;;;12.40;58.00;12.60;96164.00;;;;5013713;28;20206;-79
2023/04/11 01:07:53;;;;;;;4.90;4.50;;;12.40;58.10;12.60;96175.00;;;;5014190;28;20578;-79
2023/04/11 01:10:22;;;;;;;5.00;4.40;;;12.50;58.20;12.60;96172.00;;;;5014496;28;20692;-79
2023/04/11 01:12:51;;;;;;;4.43;4.03;;;12.40;58.20;12.60;96169.00;;;;5015158;28;20253;-79
2023/04/11 01:15:19;;;;;;;5.10;4.60;;;12.50;58.20;12.60;96181.00;;;;5013443;28;20237;-79
2023/04/11 01:17:47;;;;;;;4.93;4.53;;;12.50;58.30;12.70;96178.00;;;;5022050;28;20208;-79
2023/04/11 01:20:15;;;;;;;4.43;4.07;;;12.50;58.30;12.70;96176.00;;;;5008227;28;20553;-79
2023/04/11 01:22:44;;;;;;;4.77;4.30;;;12.50;58.30;12.70;96168.00;;;;5025030;28;20229;-79
2023/04/11 01:25:15;;;;;;;4.63;4.23;;;12.50;58.30;12.70;96170.00;;;;5032375;28;20289;-79
2023/04/11 01:27:42;;;;;;;4.83;4.37;;;12.60;58.60;12.70;96155.00;;;;5011134;28;20598;-79
2023/04/11 01:30:11;;;;;;;4.97;4.57;;;12.60;58.70;12.70;96151.00;;;;4991437;28;20201;-80
2023/04/11 01:32:38;;;;;;;4.80;4.37;;;12.60;58.90;12.80;96140.00;;;;4990028;28;20218;-80
2023/04/11 01:35:08;;;;;;;3.93;3.60;;;12.60;59.00;12.80;96131.00;;;;5009468;28;20273;-79
2023/04/11 01:37:36;;;;;;;4.27;3.90;;;12.60;59.10;12.80;96131.00;;;;4981806;28;20206;-80
2023/04/11 01:40:04;;;;;;;4.37;3.97;;;12.60;59.30;12.80;96122.00;;;;4970528;28;20220;-79
2023/04/11 01:42:33;;;;;;;4.33;3.93;;;12.60;59.50;12.80;96130.00;;;;5027362;28;20229;-79
2023/04/11 01:45:03;;;;;;;4.00;3.70;;;12.60;59.70;12.80;96125.00;;;;5032725;28;20209;-80
2023/04/11 01:47:30;;;;;;;4.20;3.90;;;12.60;59.80;12.80;96122.00;;;;5016313;28;20717;-79
2023/04/11 01:49:57;;;;;;;5.03;4.40;;;12.70;60.10;12.80;96119.00;;;;5012808;28;20205;-79
2023/04/11 01:52:24;;;;;;;4.50;4.10;;;12.70;60.30;12.80;96122.00;;;;5020398;28;20246;-79
2023/04/11 01:54:52;;;;;;;5.53;4.30;;;12.70;60.40;12.80;96118.00;;;;5012619;28;20753;-79
2023/04/11 01:57:19;;;;;;;4.57;4.17;;;12.70;60.50;12.90;96120.00;;;;5012395;28;20292;-79
2023/04/11 01:59:47;;;;;;;4.50;4.10;;;12.70;60.50;12.80;96117.00;;;;5029507;28;20208;-80
2023/04/11 02:02:15;;;;;;;4.63;4.20;;;12.70;60.40;12.90;96116.00;;;;5024104;28;20241;-79
2023/04/11 02:04:42;;;;;;;4.60;4.20;;;12.70;60.50;12.80;96104.00;;;;5012866;28;20653;-79
2023/04/11 02:07:09;;;;;;;4.53;4.13;;;12.70;60.60;12.90;96095.00;;;;5014098;28;20193;-79
2023/04/11 02:09:37;;;;;;;4.43;4.03;;;12.70;60.80;12.90;96095.00;;;;5013940;28;20561;-80
2023/04/11 02:12:05;;;;;;;4.43;3.97;;;12.80;60.90;12.90;96092.00;;;;5003150;28;20590;-79
2023/04/11 02:14:42;;;;;;;4.10;3.80;;;12.80;60.90;12.90;96080.00;;;;5027753;28;20284;-79
2023/04/11 02:17:12;;;;;;;4.30;3.87;;;12.80;61.40;12.90;96077.00;;;;5019875;28;20197;-79
2023/04/11 02:19:40;;;;;;;4.63;4.23;;;12.80;61.10;13.00;96067.00;;;;5013770;28;20400;-80
2023/04/11 02:22:08;;;;;;;4.13;3.77;;;12.80;61.20;13.00;96061.00;;;;5007832;28;20205;-80
2023/04/11 02:24:36;;;;;;;4.60;4.20;;;12.80;61.20;13.00;96067.00;;;;5015456;28;20209;-79
2023/04/11 02:27:04;;;;;;;5.00;4.50;;;12.80;61.40;13.00;96064.00;;;;5010608;28;20698;-79
2023/04/11 02:29:31;;;;;;;4.80;4.40;;;12.80;61.50;13.00;96051.00;;;;5010033;28;20655;-80
2023/04/11 02:31:59;;;;;;;4.60;4.20;;;12.90;61.60;13.00;96051.00;;;;5018473;28;20198;-79
2023/04/11 02:34:27;;;;;;;4.47;4.07;;;12.90;61.60;13.00;96059.00;;;;5000554;28;20289;-79
2023/04/11 02:36:55;;;;;;;4.70;4.30;;;12.90;61.60;13.00;96050.00;;;;5010253;28;20202;-80
2023/04/11 02:39:22;;;;;;;4.27;3.97;;;12.90;61.80;13.00;96054.00;;;;4992069;28;20209;-80
2023/04/11 02:41:51;;;;;;;3.77;3.47;;;12.90;62.00;13.10;96050.00;;;;5010818;28;20249;-79
2023/04/11 02:44:21;;;;;;;4.80;4.40;;;12.90;62.10;13.10;96045.00;;;;5016789;28;20260;-79
2023/04/11 02:46:48;;;;;;;4.13;3.83;;;12.90;62.00;13.10;96043.00;;;;5006194;28;20217;-79
2023/04/11 02:49:15;;;;;;;4.43;4.03;;;12.90;62.10;13.10;96040.00;;;;5017468;28;20290;-79
2023/04/11 02:51:44;;;;;;;4.33;3.93;;;13.00;62.30;13.10;96049.00;;;;5020673;28;20202;-79
2023/04/11 02:54:11;;;;;;;4.30;3.93;;;13.00;62.60;13.10;96051.00;;;;5019328;28;20228;-79
2023/04/11 02:56:40;;;;;;;4.93;4.50;;;13.00;62.60;13.20;96048.00;;;;5012362;28;20290;-79
2023/04/11 02:59:07;;;;;;;3.93;3.63;;;13.00;62.70;13.20;96051.00;;;;5004407;28;20281;-79
2023/04/11 03:01:36;;;;;;;3.93;3.63;;;13.00;62.70;13.20;96038.00;;;;5020654;28;20213;-79
2023/04/11 03:04:03;;;;;;;4.03;3.73;;;13.00;62.80;13.20;96022.00;;;;5011967;28;20283;-79
2023/04/11 03:06:32;;;;;;;4.27;3.87;;;13.00;62.60;13.10;96026.00;;;;5020202;28;20229;-80
2023/04/11 03:09:00;;;;;;;3.70;3.43;;;13.10;62.60;13.10;96027.00;;;;5020213;28;20233;-80
2023/04/11 03:11:28;;;;;;;3.67;3.33;;;13.00;62.60;13.10;96019.00;;;;5001069;28;20304;-79
2023/04/11 03:13:55;;;;;;;3.47;3.17;;;13.00;62.60;13.00;96013.00;;;;5013800;28;20710;-79
2023/04/11 03:16:22;;;;;;;3.33;3.03;;;13.00;62.90;13.00;96005.00;;;;4999877;28;20198;-79
2023/04/11 03:18:49;;;;;;;3.17;2.87;;;13.00;63.40;13.00;96000.00;;;;5019698;28;20198;-80
2023/04/11 03:21:17;;;;;;;3.83;3.47;;;13.00;64.30;13.00;95995.00;;;;5024401;28;20634;-80
2023/04/11 03:23:44;;;;;;;3.97;3.40;;;13.00;63.70;13.00;95996.00;;;;4981696;28;20221;-80
2023/04/11 03:26:13;;;;;;;3.80;3.50;;;13.00;63.90;13.10;95993.00;;;;5010664;28;20206;-80
2023/04/11 03:28:40;;;;;;;4.00;3.70;;;13.00;64.40;13.10;96005.00;;;;5013447;28;20204;-80
2023/04/11 03:31:08;;;;;;;4.53;3.60;;;13.00;64.50;13.10;96016.00;;;;5029785;28;20289;-80
2023/04/11 03:33:35;;;;;;;4.30;3.90;;;13.00;64.60;13.20;96022.00;;;;5013593;28;20228;-80
2023/04/11 03:36:03;;;;;;;4.00;3.70;;;13.10;65.00;13.20;96017.00;;;;5032899;28;20201;-80
2023/04/11 03:38:30;;;;;;;3.80;3.50;;;13.10;65.20;13.20;96024.00;;;;5027657;28;20206;-79
2023/04/11 03:40:58;;;;;;;3.67;3.37;;;13.10;65.20;13.20;96012.00;;;;5014271;28;20210;-80
2023/04/11 03:43:26;;;;;;;3.97;3.30;;;13.10;65.30;13.30;96021.00;;;;5021302;28;20720;-80
2023/04/11 03:45:53;;;;;;;3.57;3.27;;;13.10;65.40;13.30;96023.00;;;;5035164;28;20292;-79
2023/04/11 03:48:25;;;;;;;2.47;2.27;;;13.10;65.50;13.30;96023.00;;;;5030304;28;20202;-80
2023/04/11 03:50:52;;;;;;;1.93;1.83;;;13.10;65.30;13.30;96021.00;;;;5014978;28;20206;-80
2023/04/11 03:53:19;;;;;;;2.20;1.83;;;13.10;65.00;13.30;96007.00;;;;5013777;28;20224;-80
2023/04/11 03:55:47;;;;;;;1.70;1.60;;;13.20;65.00;13.30;95999.00;;;;5015528;28;20592;-80
2023/04/11 03:58:15;;;;;;;2.70;1.77;;;13.20;65.30;13.40;95995.00;;;;5029803;28;20212;-81
2023/04/11 04:00:43;;;;;;;1.50;1.40;;;13.20;65.30;13.40;95983.00;;;;5023396;28;20208;-79
2023/04/11 04:03:12;;;;;;;2.17;1.40;;;13.30;65.50;13.50;95967.00;;;;5022256;28;20312;-80
2023/04/11 04:05:40;;;;;;;1.87;1.70;;;13.30;65.50;13.60;95965.00;;;;5024994;28;20198;-80
2023/04/11 04:08:08;;;;;;;1.60;1.47;;;13.40;65.60;13.60;95962.00;;;;4989705;28;20663;-80
2023/04/11 04:10:35;;;;;;;3.83;1.93;;;13.50;65.80;13.70;95963.00;;;;5017618;28;20206;-80
2023/04/11 04:13:02;;;;;;;2.40;2.20;;;13.50;66.10;13.70;95956.00;;;;5017575;28;20217;-81
2023/04/11 04:15:29;;;;;;;2.17;2.00;;;13.60;66.40;13.80;95952.00;;;;5027026;28;20552;-80
2023/04/11 04:17:58;;;;;;;1.90;1.80;;;13.60;67.40;13.80;95957.00;;;;5013523;28;20233;-80
2023/04/11 04:20:25;;;;;;;1.83;1.73;;;13.70;67.00;13.80;95952.00;;;;4994134;28;20312;-80
2023/04/11 04:22:53;;;;;;;1.70;1.60;;;13.60;67.00;13.90;95948.00;;;;5028814;28;20320;-80
2023/04/11 04:25:20;;;;;;;1.60;1.50;;;13.70;67.30;13.90;95956.00;;;;5020035;28;20202;-81
2023/04/11 04:27:47;;;;;;;1.37;1.27;;;13.70;67.50;13.90;95953.00;;;;5023346;28;20209;-82
2023/04/11 04:30:17;;;;;;;2.17;1.60;;;13.70;67.40;13.90;95953.00;;;;5029723;28;20198;-80
2023/04/11 04:32:45;;;;;;;1.87;1.77;;;13.70;67.60;13.90;95966.00;;;;5022766;28;20221;-81
2023/04/11 04:35:15;;;;;;;1.90;1.43;;;13.80;67.90;14.00;95960.00;;;;5003669;28;20284;-80
2023/04/11 04:37:44;;;;;;;2.00;1.80;;;13.80;68.00;14.00;95961.00;;;;5013113;28;20209;-80
2023/04/11 04:40:14;;;;;;;1.80;1.70;;;13.80;68.10;14.10;95960.00;;;;5022224;28;20198;-80
2023/04/11 04:42:42;;;;;;;1.80;1.70;;;13.90;68.20;14.10;95967.00;;;;5029960;28;20229;-80
2023/04/11 04:45:10;;;;;;;1.53;1.43;;;13.90;68.10;14.10;95978.00;;;;5013780;28;20293;-81
2023/04/11 04:47:39;;;;;;;1.80;1.50;;;13.90;68.10;14.10;95974.00;;;;5021236;28;20229;-80
2023/04/11 04:50:09;;;;;;;1.80;1.70;;;13.90;68.20;14.10;95991.00;;;;4996823;28;20209;-82
2023/04/11 04:52:38;;;;;;;1.73;1.53;;;13.90;68.10;14.10;95985.00;;;;5013834;28;20256;-81
2023/04/11 04:55:06;;;;;;;1.60;1.50;;;14.00;68.20;14.20;95979.00;;;;5021578;28;20262;-80
2023/04/11 04:57:34;;;;;;;1.60;1.50;;;14.00;68.20;14.20;95975.00;;;;4996830;28;20591;-81
2023/04/11 05:00:05;;;;;;;1.73;1.63;;;14.00;68.30;14.20;95974.00;;;;5013013;28;20197;-80
2023/04/11 05:02:32;;;;;;;1.90;1.43;;;14.00;68.50;14.20;95980.00;;;;4981255;28;20214;-80
2023/04/11 05:05:02;;;;;;;1.30;1.10;;;14.00;68.50;14.20;95975.00;;;;5022191;28;20231;-80
2023/04/11 05:07:30;;;;;;;1.50;1.40;;;14.00;68.40;14.20;95972.00;;;;4996338;28;20205;-80
2023/04/11 05:09:58;;;;;;;0.90;0.90;;;14.00;68.20;14.30;95973.00;;;;4994729;28;20202;-80
2023/04/11 05:12:26;;;;;;;1.23;1.13;;;14.00;67.50;14.30;95973.00;;;;5012700;28;20580;-81
2023/04/11 05:14:55;;;;;;;1.20;1.10;;;14.00;67.20;14.30;95980.00;;;;5021041;28;20236;-80
2023/04/11 05:17:23;;;;;;;1.00;1.00;;;14.10;67.00;14.40;95972.00;;;;4994473;28;20244;-80
2023/04/11 05:19:50;;;;;;;1.07;1.00;;;14.10;67.00;14.40;95963.00;;;;5011549;28;20206;-80
2023/04/11 05:22:17;;;;;;;1.67;1.20;;;14.20;66.80;14.50;95985.00;;;;4985316;28;20198;-79
2023/04/11 05:24:45;;;;;;;1.07;0.97;;;14.20;66.60;14.50;95971.00;;;;5010536;28;20233;-80
2023/04/11 05:27:14;;;;;;;0.90;0.90;;;14.20;66.30;14.50;95982.00;;;;4993569;28;20652;-81
2023/04/11 05:29:42;;;;;;;1.20;0.90;;;14.20;65.50;14.50;95983.00;;;;5020275;28;20280;-80
2023/04/11 05:32:09;;;;;;;1.67;1.00;;;14.30;65.00;14.60;95976.00;;;;5017511;28;20224;-81
2023/04/11 05:34:52;;;;;;;1.20;1.00;;;14.30;64.60;14.60;95990.00;;;;5007776;28;20410;-80
2023/04/11 05:37:20;;;;;;;1.20;0.80;;;14.40;64.40;14.70;95992.00;;;;5011973;28;20202;-80
2023/04/11 05:39:47;;;;;;;0.70;0.70;;;14.40;64.30;14.70;95993.00;;;;5013961;28;20208;-80
2023/04/11 05:42:17;;;;;;;1.50;1.40;;;14.50;64.30;14.80;95995.00;;;;5011398;28;20282;-80
2023/04/11 05:44:45;;;;;;;1.10;1.00;;;14.50;63.90;14.80;95995.00;;;;4997819;28;20225;-80
2023/04/11 05:47:12;;;;;;;0.97;0.90;;;14.60;63.80;14.90;95999.00;;;;5016848;28;20232;-79
2023/04/11 05:49:40;;;;;;;0.70;0.70;;;14.60;63.70;14.90;96006.00;;;;4999665;28;20233;-80
2023/04/11 05:52:07;;;;;;;0.90;0.90;;;14.70;63.40;15.00;96011.00;;;;4984229;28;20290;-80
2023/04/11 05:54:36;;;;;;;1.23;1.07;;;14.70;63.20;15.00;96012.00;;;;5024198;28;20228;-80
2023/04/11 05:57:06;;;;;;;1.17;1.00;;;14.80;63.20;15.10;96008.00;;;;5012280;28;20204;-80
2023/04/11 05:59:35;;;;;;;1.70;0.77;;;14.80;63.20;15.20;96011.00;;;;4976355;28;20210;-80
2023/04/11 06:02:02;;;;;;;1.00;0.90;;;14.90;63.00;15.20;96017.00;;;;5014933;28;20193;-80
2023/04/11 06:04:29;;;;;;;0.80;0.80;;;15.00;63.10;15.30;96021.00;;;;5014409;28;20764;-80
2023/04/11 06:06:57;;;;;;;1.57;1.10;;;15.00;62.90;15.40;96016.00;;;;5012610;28;20206;-80
2023/04/11 06:09:24;;;;;;;0.70;0.70;;;15.10;62.70;15.40;96011.00;;;;5010909;28;20337;-80
2023/04/11 06:11:51;;;;;;;0.90;0.90;;;15.10;62.70;15.40;96007.00;;;;5010349;28;20198;-79
2023/04/11 06:14:19;;;;;;;3.20;0.70;;;15.20;62.80;15.50;96019.00;;;;5015417;28;20217;-80
2023/04/11 06:16:48;;;;;;;3.00;1.30;;;15.20;63.30;15.50;96029.00;;;;5021281;28;20227;-79
2023/04/11 06:19:17;;;;;;;0.80;0.77;;;15.40;62.80;15.50;96031.00;;;;5018824;28;20282;-80
2023/04/11 06:21:44;;;;;;;1.50;1.00;;;15.40;62.90;15.60;96039.00;;;;4993552;28;20609;-80
2023/04/11 06:24:12;;;;;;;1.33;0.90;;;15.30;62.90;15.60;96043.00;;;;4992360;28;20296;-80
2023/04/11 06:26:39;;;;;;;1.20;1.10;;;15.40;62.90;15.60;96035.00;;;;4993367;28;20248;-80
2023/04/11 06:29:07;;;;;;;1.30;1.20;;;15.40;63.10;15.60;96053.00;;;;4994869;28;20293;-80
2023/04/11 06:31:34;;;;;;;1.10;0.93;;;15.40;63.30;15.60;96052.00;;;;5020248;28;20197;-80
2023/04/11 06:34:03;;;;;;;1.10;1.10;;;15.40;63.20;15.60;96054.00;;;;5032254;28;20217;-79
2023/04/11 06:36:31;;;;;;;0.60;0.60;;;15.50;63.30;15.50;96056.00;;;;5007400;28;20197;-80
2023/04/11 06:38:58;;;;;;;0.50;0.50;;;15.50;63.10;15.50;96050.00;;;;5015659;28;20308;-80
2023/04/11 06:41:25;;;;;;;0.83;0.50;;;15.40;63.00;15.50;96057.00;;;;5014894;28;20201;-79
2023/04/11 06:43:53;;;;;;;0.40;0.40;;;15.40;63.10;15.50;96054.00;;;;5015151;28;20230;-79
2023/04/11 06:46:20;;;;;;;0.90;0.50;;;15.40;63.10;15.50;96044.00;;;;5008574;28;20251;-80
2023/04/11 06:48:48;;;;;;;0.77;0.50;;;15.40;63.20;15.50;96047.00;;;;5016394;28;20212;-79
2023/04/11 06:51:17;;;;;;;0.73;0.50;;;15.40;63.40;15.50;96061.00;;;;5031264;28;20229;-79
2023/04/11 06:53:45;;;;;;;0.40;0.40;;;15.40;63.70;15.50;96067.00;;;;5030593;28;20221;-79
2023/04/11 06:56:12;;;;;;;0.73;0.60;;;15.40;63.80;15.60;96068.00;;;;5008865;28;20198;-79
2023/04/11 06:58:39;;;;;;;0.40;0.40;;;15.40;64.00;15.60;96056.00;;;;5016555;28;20324;-79
2023/04/11 07:01:07;;;;;;;0.50;0.50;;;15.40;64.20;15.60;96066.00;;;;4994993;28;20230;-80
2023/04/11 07:03:35;;;;;;;0.40;0.40;;;15.40;64.30;15.60;96053.00;;;;5035246;28;20228;-80
2023/04/11 07:06:02;;;;;;;0.37;0.37;;;15.40;64.50;15.60;96052.00;;;;5024634;28;20198;-80
2023/04/11 07:08:31;;;;;;;0.30;0.30;;;15.40;64.70;15.60;96064.00;;;;5038211;28;20221;-80
2023/04/11 07:10:58;;;;;;;0.40;0.40;;;15.40;65.00;15.60;96069.00;;;;5015564;28;20610;-80
2023/04/11 07:13:25;;;;;;;0.60;0.40;;;15.50;65.20;15.60;96075.00;;;;5014981;28;20681;-80
2023/04/11 07:15:53;;;;;;;0.57;0.50;;;15.40;65.30;15.60;96075.00;;;;5016466;28;20613;-79
2023/04/11 07:18:20;;;;;;;0.80;0.73;;;15.50;65.50;15.70;96080.00;;;;5004977;28;20290;-80
2023/04/11 07:20:51;;;;;;;0.73;0.63;;;15.50;65.50;15.70;96076.00;;;;5024216;28;20235;-79
2023/04/11 07:23:18;;;;;;;0.93;0.90;;;15.50;65.40;15.70;96078.00;;;;5032743;28;20313;-81
2023/04/11 07:25:47;;;;;;;0.80;0.80;;;15.50;65.50;15.70;96082.00;;;;5015882;28;20222;-81
2023/04/11 07:28:15;;;;;;;1.23;1.07;;;15.50;65.50;15.70;96086.00;;;;5005580;28;20201;-80
2023/04/11 07:30:42;;;;;;;1.20;0.80;;;15.50;65.40;15.80;96090.00;;;;5037173;28;20749;-81
2023/04/11 07:33:10;;;;;;;0.80;0.80;;;15.50;65.40;15.80;96101.00;;;;5024656;28;20222;-80
2023/04/11 07:35:37;;;;;;;2.00;0.63;;;15.50;65.30;15.80;96094.00;;;;5007691;28;20255;-82
2023/04/11 07:38:05;;;;;;;1.30;0.60;;;15.50;65.10;15.80;96094.00;;;;5017439;28;20653;-80
2023/04/11 07:40:32;;;;;;;0.93;0.80;;;15.50;65.10;15.80;96100.00;;;;5000053;28;20741;-79
2023/04/11 07:43:01;;;;;;;0.60;0.60;;;15.50;65.00;15.80;96110.00;;;;5029063;28;20224;-82
2023/04/11 07:45:28;;;;;;;0.70;0.70;;;15.50;65.10;15.80;96111.00;;;;5037674;28;20217;-81
2023/04/11 07:47:56;;;;;;;1.83;0.53;;;15.50;65.00;15.70;96112.00;;;;5017539;28;20222;-80
2023/04/11 07:50:23;;;;;;;0.67;0.67;;;15.50;65.00;15.70;96130.00;;;;5016662;28;20197;-80
2023/04/11 07:52:50;;;;;;;0.50;0.40;;;15.50;64.80;15.60;96123.00;;;;5017192;28;20218;-80
2023/04/11 07:55:18;;;;;;;0.50;0.37;;;15.50;64.80;15.60;96144.00;;;;5029799;28;20216;-81
2023/04/11 07:57:46;;;;;;;0.40;0.30;;;15.50;64.50;15.50;96143.00;;;;5021499;28;20226;-83
2023/04/11 08:00:24;;;;;;;1.27;0.40;;;15.40;64.30;15.50;96126.00;;;;5024022;28;20194;-81
2023/04/11 08:02:51;;;;;;;0.93;0.37;;;15.50;64.50;15.50;96126.00;;;;4997391;28;20218;-82
2023/04/11 08:05:19;;;;;;;0.40;0.30;;;15.40;64.30;15.50;96115.00;;;;5014425;28;20240;-81
2023/04/11 08:07:46;;;;;;;1.10;0.40;;;15.40;64.50;15.40;96122.00;;;;5014947;28;20206;-85
2023/04/11 08:10:14;;;;;;;2.50;1.67;;;15.40;64.40;15.40;96124.00;;;;5001307;28;20284;-81
2023/04/11 08:12:42;;;;;;;1.23;1.00;;;15.30;64.40;15.30;96130.00;;;;5031981;28;20218;-82
2023/04/11 08:15:10;;;;;;;0.83;0.70;;;15.30;64.70;15.30;96127.00;;;;5010386;28;20201;-85
2023/04/11 08:17:39;;;;;;;0.50;0.40;;;15.30;64.90;15.30;96136.00;;;;5002071;28;20421;-79
2023/04/11 08:20:10;;;;;;;0.60;0.40;;;15.20;64.80;15.30;96136.00;;;;5017564;28;20666;-79
2023/04/11 08:22:39;;;;;;;0.63;0.30;;;15.20;64.70;15.40;96141.00;;;;5025136;28;20228;-80
2023/04/11 08:25:09;;;;;;;1.03;0.40;;;15.20;64.90;15.50;96144.00;;;;5024955;28;20254;-80
2023/04/11 08:27:36;;;;;;;0.53;0.20;;;15.30;65.10;15.60;96151.00;;;;5017028;28;20216;-79
2023/04/11 08:30:08;;;;;;;0.80;0.30;;;15.30;65.30;15.70;96154.00;;;;5017567;28;20206;-85
2023/04/11 08:32:35;;;;;;;0.63;0.23;;;15.40;65.50;15.80;96158.00;;;;5007816;28;20230;-83
2023/04/11 08:35:05;;;;;;;0.60;0.30;;;15.40;65.30;16.00;96162.00;;;;4992823;28;20210;-82
2023/04/11 08:37:32;;;;;;;0.47;0.20;;;15.50;64.90;16.00;96168.00;;;;5018333;28;20318;-81
2023/04/11 08:39:59;;;;;;;0.20;0.20;;;15.60;64.50;16.10;96175.00;;;;5020776;28;20265;-82
2023/04/11 08:42:29;;;;;;;0.37;0.10;;;15.70;64.50;16.20;96163.00;;;;5021601;28;20273;-83
2023/04/11 08:45:00;;;;;;;0.30;0.20;;;15.70;64.40;16.20;96150.00;;;;5021011;28;20281;-83
2023/04/11 08:47:28;;;;;;;1.30;0.20;;;15.80;64.00;16.30;96160.00;;;;5001617;28;20198;-83
2023/04/11 08:49:56;;;;;;;0.30;0.30;;;15.80;63.50;16.30;96170.00;;;;5006881;28;20281;-80
2023/04/11 08:52:25;;;;;;;0.27;0.27;;;15.80;63.50;16.30;96185.00;;;;5014680;28;20225;-84
2023/04/11 08:54:54;;;;;;;0.20;0.13;;;15.90;63.30;16.30;96188.00;;;;5016411;28;20210;-83
2023/04/11 08:57:27;;;;;;;0.97;0.20;;;15.90;63.00;16.30;96187.00;;;;5018274;28;20190;-84
2023/04/11 08:59:59;;;;;;;0.10;0.10;;;15.90;62.90;16.20;96200.00;;;;5021169;28;20194;-79
2023/04/11 09:02:26;;;;;;;0.30;0.20;;;16.00;62.60;16.20;96196.00;;;;5025547;28;20252;-82
2023/04/11 09:04:56;;;;;;;0.80;0.27;;;15.90;62.30;16.10;96209.00;;;;5015830;28;20285;-81
2023/04/11 09:07:25;;;;;;;0.50;0.30;;;15.90;62.10;16.00;96194.00;;;;5017544;28;20289;-82
2023/04/11 09:09:52;;;;;;;0.53;0.13;;;15.80;62.00;16.00;96196.00;;;;5015161;28;20198;-82
2023/04/11 09:12:29;;;;;;;0.40;0.40;;;15.80;62.00;16.00;96199.00;;;;5026471;28;20290;-83
2023/04/11 09:14:56;;;;;;;0.10;0.10;;;15.80;62.10;16.00;96210.00;;;;5008101;28;20639;-81
2023/04/11 09:17:23;;;;;;;0.27;0.17;;;15.80;62.00;16.10;96213.00;;;;5015034;28;20273;-84
2023/04/11 09:19:50;;;;;;;0.23;0.10;;;15.80;62.00;16.20;96206.00;;;;5011872;28;20288;-83
2023/04/11 09:22:17;;;;;;;0.77;0.13;;;15.80;62.00;16.20;96201.00;;;;4996909;28;20205;-80
2023/04/11 09:25:02;;;;;;;0.10;0.10;;;15.80;61.70;16.30;96195.00;;;;5019506;28;20218;-82
2023/04/11 09:27:29;;;;;;;0.70;0.30;;;15.90;61.10;16.30;96198.00;;;;5027270;28;20202;-81
2023/04/11 09:29:58;;;;;;;0.50;0.40;;;15.90;61.20;16.30;96207.00;;;;5031069;28;20267;-83
2023/04/11 09:32:32;;;;;;;0.17;0.17;;;15.90;61.00;16.30;96204.00;;;;5019806;28;20297;-81
2023/04/11 09:35:11;;;;;;;0.50;0.50;;;15.90;60.60;16.30;96201.00;;;;5008817;28;20206;-79
2023/04/11 09:37:47;;;;;;;0.37;0.30;;;16.00;60.40;16.30;96212.00;;;;5013508;28;20216;-82
2023/04/11 09:40:18;;;;;;;1.17;0.40;;;15.90;60.20;16.30;96193.00;;;;5023283;28;20509;-81
2023/04/11 09:42:47;;;;;;;0.70;0.67;;;16.00;60.00;16.20;96203.00;;;;5014287;28;20219;-81
2023/04/11 09:45:19;;;;;;;1.53;0.60;;;15.90;59.90;16.20;96208.00;;;;5035872;28;20217;-81
2023/04/11 09:47:50;;;;;;;0.50;0.43;;;15.90;59.80;16.30;96222.00;;;;5021192;28;20204;-81
2023/04/11 09:50:18;;;;;;;0.30;0.30;;;15.90;59.70;16.30;96234.00;;;;5022107;28;20286;-82
2023/04/11 09:52:47;;;;;;;0.90;0.30;;;15.90;59.20;16.30;96236.00;;;;5023174;28;20278;-83
2023/04/11 09:55:20;;;;;;;0.40;0.37;;;16.00;58.80;16.30;96249.00;;;;5019750;28;20240;-82
2023/04/11 09:57:50;;;;;;;0.50;0.30;;;16.00;58.40;16.40;96247.00;;;;5000803;28;20218;-82
2023/04/11 10:00:23;;;;;;;0.30;0.30;;;16.00;58.40;16.40;96241.00;;;;5018983;28;20198;-81
2023/04/11 10:02:53;;;;;;;0.43;0.37;;;16.00;58.10;16.50;96239.00;;;;5021641;28;20213;-81
2023/04/11 10:05:26;;;;;;;0.80;0.43;;;16.10;58.40;16.60;96246.00;;;;5030932;28;20293;-81
2023/04/11 10:08:02;;;;;;;6.17;0.73;;;16.10;58.40;16.80;96253.00;;;;5014388;28;20236;-81
2023/04/11 10:10:31;;;;;;;1.10;0.70;;;16.20;58.00;16.80;96255.00;;;;5021547;28;20603;-82
2023/04/11 10:12:58;;;;;;;1.07;0.30;;;16.30;58.10;16.90;96266.00;;;;5023807;28;20603;-81
2023/04/11 10:15:26;;;;;;;0.70;0.40;;;16.40;57.60;17.00;96249.00;;;;5026548;28;20202;-81
2023/04/11 10:18:11;;;;;;;0.40;0.40;;;16.40;57.70;17.00;96264.00;;;;5004824;28;20221;-81
2023/04/11 10:20:44;;;;;;;0.60;0.40;;;16.50;57.00;17.00;96267.00;;;;5021256;28;20194;-81
2023/04/11 10:23:12;;;;;;;0.63;0.63;;;16.60;57.00;17.00;96272.00;;;;5015121;28;20222;-81
2023/04/11 10:25:57;;;;;;;0.93;0.77;;;16.60;57.00;17.00;96278.00;;;;5016319;28;20244;-80
2023/04/11 10:28:37;;;;;;;1.00;0.80;;;16.60;56.60;17.00;96282.00;;;;5025072;28;20201;-80
2023/04/11 10:31:08;;;;;;;1.80;0.60;;;16.60;56.90;17.00;96299.00;;;;5007852;28;20194;-79
2023/04/11 10:33:37;;;;;;;1.33;0.60;;;16.60;56.90;17.00;96304.00;;;;5026715;28;20221;-81
2023/04/11 10:36:08;;;;;;;0.53;0.30;;;16.60;56.70;17.00;96303.00;;;;5019473;28;20201;-81
2023/04/11 10:38:47;;;;;;;0.73;0.60;;;16.60;56.30;17.00;96278.00;;;;5019004;28;20198;-81
2023/04/11 10:41:28;;;;;;;1.50;0.50;;;16.60;55.80;16.90;96272.00;;;;5013041;28;20202;-79
2023/04/11 10:44:19;;;;;;;1.10;0.70;;;16.60;56.20;16.90;96263.00;;;;5026979;28;20293;-81
2023/04/11 10:46:52;;;;;;;1.47;0.40;;;16.60;55.60;16.90;96258.00;;;;5007333;28;20237;-82
2023/04/11 10:49:37;;;;;;;0.90;0.50;;;16.60;56.30;17.00;96267.00;;;;5030818;28;20194;-82
2023/04/11 10:52:21;;;;;;;1.13;0.57;;;16.60;56.20;17.00;96258.00;;;;5024653;28;20263;-82
2023/04/11 10:54:51;;;;;;;0.43;0.40;;;16.70;56.30;17.10;96271.00;;;;5022425;28;20708;-83
2023/04/11 10:57:21;;;;;;;1.00;0.73;;;16.70;56.40;17.20;96288.00;;;;5014642;28;20229;-83
2023/04/11 11:00:11;;;;;;;0.57;0.30;;;16.80;56.30;17.30;96274.00;;;;5014021;28;20248;-84
2023/04/11 11:02:40;;;;;;;2.63;0.60;;;16.90;55.90;17.40;96276.00;;;;5020472;28;20225;-81